createdAt,value
2022-11-23T00:01:18.613Z,6.88
2022-11-23T00:05:20.443Z,5.82
2022-11-23T00:09:22.708Z,4.95
2022-11-23T00:13:24.338Z,5.95
2022-11-23T00:17:25.928Z,5.45
2022-11-23T00:21:30.931Z,7.88
2022-11-23T00:25:32.541Z,5.45
2022-11-23T00:29:34.354Z,5.90
2022-11-23T00:33:36.260Z,9.77
2022-11-23T00:37:37.888Z,5.45
2022-11-23T00:41:39.462Z,6.20
2022-11-23T00:45:41.144Z,5.70
2022-11-23T00:49:42.712Z,7.97
2022-11-23T00:53:44.988Z,6.43
2022-11-23T00:57:46.655Z,5.80
2022-11-23T01:01:49.494Z,5.22
2022-11-23T01:05:51.185Z,4.07
2022-11-23T01:09:52.760Z,5.55
2022-11-23T01:13:54.811Z,5.63
2022-11-23T01:17:56.574Z,4.65
2022-11-23T01:21:58.318Z,4.53
2022-11-23T01:26:06.076Z,4.53
2022-11-23T01:30:08.354Z,4.05
2022-11-23T01:34:12.205Z,4.65
2022-11-23T01:38:17.999Z,4.88
2022-11-23T01:42:20.066Z,4.25
2022-11-23T01:46:21.937Z,3.90
2022-11-23T01:50:23.850Z,4.05
2022-11-23T01:54:32.286Z,4.68
2022-11-23T01:58:39.448Z,6.20
2022-11-23T02:03:03.555Z,4.80
2022-11-23T02:07:05.632Z,4.30
2022-11-23T02:11:07.443Z,4.20
2022-11-23T02:15:09.473Z,3.90
2022-11-23T02:19:22.258Z,5.93
2022-11-23T02:24:12.754Z,4.40
2022-11-23T02:28:24.692Z,3.78
2022-11-23T02:32:27.208Z,5.97
2022-11-23T02:36:34.309Z,4.88
2022-11-23T02:40:36.715Z,3.72
2022-11-23T02:45:09.160Z,4.82
2022-11-23T02:49:10.950Z,5.93
2022-11-23T02:53:13.343Z,3.80
2022-11-23T02:57:15.020Z,4.05
2022-11-23T03:01:16.877Z,4.28
2022-11-23T03:05:18.542Z,3.58
2022-11-23T03:09:20.283Z,4.05
2022-11-23T03:13:21.890Z,5.13
2022-11-23T03:17:23.562Z,3.83
2022-11-23T03:21:25.407Z,4.03
2022-11-23T03:25:27.010Z,5.15
2022-11-23T03:29:28.953Z,4.38
2022-11-23T03:33:30.840Z,3.63
2022-11-23T03:37:32.494Z,4.35
2022-11-23T03:41:34.121Z,4.28
2022-11-23T03:45:35.700Z,4.53
2022-11-23T03:49:37.319Z,4.68
2022-11-23T03:53:38.924Z,3.70
2022-11-23T03:57:40.506Z,4.70
2022-11-23T04:01:42.157Z,3.95
2022-11-23T04:05:43.746Z,4.28
2022-11-23T04:09:45.333Z,4.78
2022-11-23T04:13:47.012Z,3.85
2022-11-23T04:17:48.601Z,4.05
2022-11-23T04:21:50.207Z,3.28
2022-11-23T04:25:51.874Z,3.83
2022-11-23T04:29:53.494Z,4.00
2022-11-23T04:33:56.712Z,2.50
2022-11-23T04:37:58.367Z,4.20
2022-11-23T04:41:59.937Z,3.58
2022-11-23T04:46:01.524Z,3.17
2022-11-23T04:50:03.361Z,3.65
2022-11-23T04:54:05.532Z,3.20
2022-11-23T04:58:07.127Z,4.03
2022-11-23T05:02:08.901Z,3.55
2022-11-23T05:06:10.757Z,4.80
2022-11-23T05:10:12.528Z,4.07
2022-11-23T05:14:14.232Z,4.72
2022-11-23T05:18:15.873Z,5.38
2022-11-23T05:22:17.488Z,3.80
2022-11-23T05:26:19.592Z,2.55
2022-11-23T05:30:21.618Z,2.40
2022-11-23T05:34:23.322Z,3.65
2022-11-23T05:38:24.953Z,3.63
2022-11-23T05:42:26.537Z,3.10
2022-11-23T05:46:28.159Z,3.08
2022-11-23T05:50:29.952Z,5.60
2022-11-23T05:54:31.625Z,3.35
2022-11-23T05:58:33.434Z,3.15
2022-11-23T06:02:40.765Z,3.55
2022-11-23T06:06:42.744Z,3.38
2022-11-23T06:10:44.605Z,2.40
2022-11-23T06:14:46.225Z,3.35
2022-11-23T06:18:47.880Z,3.25
2022-11-23T06:22:53.743Z,3.50
2022-11-23T06:26:55.411Z,4.43
2022-11-23T06:31:02.324Z,3.53
2022-11-23T06:35:04.075Z,3.80
2022-11-23T06:39:06.114Z,5.85
2022-11-23T06:43:09.248Z,5.55
2022-11-23T06:47:16.501Z,5.75
2022-11-23T06:51:18.886Z,6.05
2022-11-23T06:55:21.397Z,8.05
2022-11-23T06:59:22.978Z,6.35
2022-11-23T07:03:25.022Z,4.30
2022-11-23T07:07:27.235Z,5.75
2022-11-23T07:11:29.004Z,10.23
2022-11-23T07:15:30.617Z,8.52
2022-11-23T07:19:32.530Z,5.50
2022-11-23T07:23:38.562Z,7.28
2022-11-23T07:27:40.159Z,6.38
2022-11-23T07:31:41.954Z,7.97
2022-11-23T07:35:43.618Z,8.10
2022-11-23T07:40:01.301Z,8.15
2022-11-23T07:44:03.225Z,7.07
2022-11-23T07:48:07.137Z,7.35
2022-11-23T07:52:08.716Z,8.57
2022-11-23T07:56:10.351Z,7.72
2022-11-23T08:00:12.579Z,6.47
2022-11-23T08:04:14.184Z,7.82
2022-11-23T08:08:16.096Z,7.38
2022-11-23T08:12:17.733Z,7.63
2022-11-23T08:16:20.350Z,6.00
2022-11-23T08:20:22.055Z,5.63
2022-11-23T08:24:23.637Z,7.75
2022-11-23T08:28:25.226Z,9.40
2022-11-23T08:32:26.800Z,9.68
2022-11-23T08:36:28.430Z,7.53
2022-11-23T08:40:30.091Z,6.43
2022-11-23T08:44:32.019Z,7.28
2022-11-23T08:48:33.889Z,10.20
2022-11-23T08:52:35.502Z,9.23
2022-11-23T08:56:37.083Z,9.52
2022-11-23T09:00:38.794Z,7.28
2022-11-23T09:04:41.475Z,7.18
2022-11-23T09:08:43.164Z,5.28
2022-11-23T09:12:44.951Z,7.90
2022-11-23T09:16:46.536Z,7.90
2022-11-23T09:20:48.092Z,6.57
2022-11-23T09:24:49.777Z,8.10
2022-11-23T09:28:51.369Z,7.05
2022-11-23T09:32:54.802Z,5.65
2022-11-23T09:36:59.401Z,5.60
2022-11-23T09:41:07.022Z,6.43
2022-11-23T09:45:32.739Z,8.80
2022-11-23T09:49:51.830Z,5.57
2022-11-23T09:54:00.622Z,9.10
2022-11-23T09:58:05.619Z,6.55
2022-11-23T10:02:38.168Z,8.02
2022-11-23T10:06:43.082Z,8.13
2022-11-23T10:10:51.215Z,6.15
2022-11-23T10:15:18.542Z,6.43
2022-11-23T10:19:38.596Z,8.73
2022-11-23T10:23:54.711Z,4.72
2022-11-23T10:28:02.499Z,7.72
2022-11-23T10:32:13.145Z,5.22
2022-11-23T10:36:14.788Z,7.35
2022-11-23T10:40:28.908Z,7.03
2022-11-23T10:44:36.829Z,7.45
2022-11-23T10:48:38.766Z,7.05
2022-11-23T10:52:50.855Z,7.03
2022-11-23T10:56:54.158Z,5.32
2022-11-23T11:01:00.697Z,4.95
2022-11-23T11:05:53.619Z,4.78
2022-11-23T11:09:52.994Z,8.50
2022-11-23T11:14:15.784Z,5.75
2022-11-23T11:18:19.394Z,6.50
2022-11-23T11:22:33.630Z,6.25
2022-11-23T11:26:35.989Z,4.47
2022-11-23T11:30:49.194Z,4.28
2022-11-23T11:35:09.679Z,4.28
2022-11-23T11:39:20.175Z,3.95
2022-11-23T11:43:43.663Z,6.38
2022-11-23T11:48:01.017Z,4.40
2022-11-23T11:52:08.775Z,4.68
2022-11-23T11:56:24.711Z,3.53
2022-11-23T12:00:27.963Z,5.45
2022-11-23T12:04:57.779Z,2.88
2022-11-23T12:09:21.543Z,5.78
2022-11-23T12:13:27.336Z,6.55
2022-11-23T12:17:47.959Z,3.67
2022-11-23T12:21:58.629Z,5.78
2022-11-23T12:26:26.440Z,6.15
2022-11-23T12:30:41.721Z,5.38
2022-11-23T12:35:21.190Z,3.30
2022-11-23T12:39:34.256Z,3.05
2022-11-23T12:43:59.142Z,4.97
2022-11-23T12:48:35.676Z,5.88
2022-11-23T12:52:46.668Z,2.88
2022-11-23T12:57:00.356Z,5.68
2022-11-23T13:01:30.673Z,6.25
2022-11-23T13:06:13.480Z,4.60
2022-11-23T13:10:27.427Z,3.38
2022-11-23T13:15:04.678Z,3.08
2022-11-23T13:19:22.416Z,4.22
2022-11-23T13:23:24.479Z,3.58
2022-11-23T13:27:31.830Z,4.57
2022-11-23T13:31:35.853Z,5.50
2022-11-23T13:35:43.655Z,4.05
2022-11-23T13:40:00.758Z,3.88
2022-11-23T13:44:12.455Z,5.03
2022-11-23T13:48:49.040Z,4.32
2022-11-23T13:52:51.854Z,4.53
2022-11-23T13:57:02.132Z,2.30
2022-11-23T14:01:04.203Z,4.95
2022-11-23T14:05:35.950Z,4.78
2022-11-23T14:09:54.345Z,2.65
2022-11-23T14:14:03.542Z,2.45
2022-11-23T14:18:18.730Z,4.22
2022-11-23T14:22:38.381Z,2.72
2022-11-23T14:27:31.216Z,2.53
2022-11-23T14:31:26.721Z,4.18
2022-11-23T14:36:13.568Z,3.53
2022-11-23T14:40:53.676Z,3.53
2022-11-23T14:44:57.810Z,5.05
2022-11-23T14:49:05.770Z,4.22
2022-11-23T14:53:10.875Z,3.38
2022-11-23T14:57:13.985Z,2.78
2022-11-23T15:01:25.077Z,1.50
2022-11-23T15:05:31.623Z,2.05
2022-11-23T15:09:54.314Z,2.22
2022-11-23T15:14:02.120Z,3.08
2022-11-23T15:18:04.764Z,1.67
2022-11-23T15:22:16.644Z,2.72
2022-11-23T15:26:46.728Z,4.75
2022-11-23T15:30:46.423Z,2.42
2022-11-23T15:34:49.314Z,2.95
2022-11-23T15:38:53.064Z,1.95
2022-11-23T15:42:54.688Z,3.53
2022-11-23T15:47:02.293Z,4.93
2022-11-23T15:51:08.344Z,4.50
2022-11-23T15:55:14.828Z,3.28
2022-11-23T15:59:35.305Z,2.60
2022-11-23T16:03:40.136Z,2.53
2022-11-23T16:07:57.601Z,1.58
2022-11-23T16:11:59.548Z,1.95
2022-11-23T16:16:04.311Z,1.75
2022-11-23T16:20:14.711Z,2.33
2022-11-23T16:24:21.358Z,1.42
2022-11-23T16:28:29.575Z,1.85
2022-11-23T16:32:31.916Z,2.00
2022-11-23T16:36:33.768Z,1.90
2022-11-23T16:40:35.516Z,1.23
2022-11-23T16:44:41.437Z,1.52
2022-11-23T16:48:43.675Z,2.25
2022-11-23T16:52:45.264Z,1.67
2022-11-23T16:56:47.096Z,2.35
2022-11-23T17:00:50.029Z,2.05
2022-11-23T17:04:51.750Z,2.38
2022-11-23T17:09:00.584Z,2.70
2022-11-23T17:13:21.322Z,2.42
2022-11-23T17:17:23.217Z,1.70
2022-11-23T17:21:24.796Z,1.75
2022-11-23T17:25:26.953Z,3.35
2022-11-23T17:29:28.725Z,4.38
2022-11-23T17:33:30.416Z,2.38
2022-11-23T17:37:32.257Z,1.73
2022-11-23T17:41:33.957Z,2.05
2022-11-23T17:45:35.603Z,3.83
2022-11-23T17:49:37.273Z,1.52
2022-11-23T17:53:39.073Z,3.95
2022-11-23T17:57:41.785Z,4.10
2022-11-23T18:01:43.446Z,2.72
2022-11-23T18:05:45.067Z,4.57
2022-11-23T18:09:46.686Z,2.38
2022-11-23T18:13:50.377Z,4.43
2022-11-23T18:17:52.021Z,7.53
2022-11-23T18:21:53.617Z,8.63
2022-11-23T18:26:03.253Z,10.65
2022-11-23T18:30:05.746Z,10.20
2022-11-23T18:34:07.554Z,13.68
2022-11-23T18:38:09.161Z,14.90
2022-11-23T18:42:10.761Z,13.27
2022-11-23T18:46:19.157Z,15.20
2022-11-23T18:50:21.053Z,15.70
2022-11-23T18:54:22.964Z,18.77
2022-11-23T18:58:25.254Z,18.80
2022-11-23T19:02:27.802Z,20.05
2022-11-23T19:06:29.413Z,23.20
2022-11-23T19:10:35.918Z,23.17
2022-11-23T19:14:37.586Z,23.67
2022-11-23T19:18:39.253Z,18.55
2022-11-23T19:22:41.058Z,19.27
2022-11-23T19:26:42.796Z,19.13
2022-11-23T19:30:44.526Z,23.30
2022-11-23T19:34:46.295Z,20.73
2022-11-23T19:38:48.320Z,21.60
2022-11-23T19:42:49.930Z,22.27
2022-11-23T19:46:51.552Z,25.85
2022-11-23T19:51:02.198Z,23.55
2022-11-23T19:55:05.823Z,22.42
2022-11-23T19:59:07.454Z,23.13
2022-11-23T20:03:09.200Z,19.98
2022-11-23T20:07:12.433Z,24.75
2022-11-23T20:11:16.430Z,23.33
2022-11-23T20:15:18.096Z,22.67
2022-11-23T20:19:19.933Z,23.95
2022-11-23T20:23:21.784Z,24.05
2022-11-23T20:27:23.391Z,22.73
2022-11-23T20:31:27.501Z,24.90
2022-11-23T20:35:29.198Z,20.83
2022-11-23T20:39:30.770Z,20.60
2022-11-23T20:43:32.359Z,20.98
2022-11-23T20:47:34.059Z,20.55
2022-11-23T20:51:35.844Z,22.83
2022-11-23T20:55:37.983Z,22.35
2022-11-23T20:59:40.454Z,21.45
2022-11-23T21:03:43.197Z,19.92
2022-11-23T21:07:45.875Z,23.13
2022-11-23T21:12:06.501Z,21.80
2022-11-23T21:16:08.497Z,21.52
2022-11-23T21:20:10.356Z,20.30
2022-11-23T21:24:12.256Z,25.23
2022-11-23T21:28:13.962Z,20.05
2022-11-23T21:32:15.588Z,23.52
2022-11-23T21:36:17.380Z,21.05
2022-11-23T21:40:19.013Z,22.10
2022-11-23T21:44:22.615Z,18.05
2022-11-23T21:48:24.293Z,17.45
2022-11-23T21:52:25.879Z,19.92
2022-11-23T21:56:28.650Z,19.02
2022-11-23T22:00:31.667Z,19.35
2022-11-23T22:04:33.651Z,18.25
2022-11-23T22:08:40.451Z,19.70
2022-11-23T22:12:42.074Z,18.90
2022-11-23T22:16:45.866Z,19.40
2022-11-23T22:20:48.181Z,18.05
2022-11-23T22:24:49.983Z,18.05
2022-11-23T22:28:51.880Z,19.13
2022-11-23T22:32:53.455Z,18.25
2022-11-23T22:36:55.091Z,16.65
2022-11-23T22:40:56.707Z,18.73
2022-11-23T22:44:59.194Z,18.20
2022-11-23T22:49:01.791Z,16.88
2022-11-23T22:53:03.413Z,16.95
2022-11-23T22:57:05.328Z,18.25
2022-11-23T23:01:09.776Z,18.73
2022-11-23T23:05:11.589Z,16.55
2022-11-23T23:09:13.204Z,16.98
2022-11-23T23:13:15.215Z,20.25
2022-11-23T23:17:16.853Z,16.30
2022-11-23T23:21:21.102Z,17.85
2022-11-23T23:25:22.713Z,17.52
2022-11-23T23:29:24.398Z,15.93
2022-11-23T23:33:25.981Z,15.52
2022-11-23T23:37:27.601Z,16.33
2022-11-23T23:41:29.169Z,18.58
2022-11-23T23:45:30.871Z,16.48
2022-11-23T23:49:32.490Z,15.32
2022-11-23T23:53:35.136Z,13.88
2022-11-23T23:57:36.725Z,14.98
